Time;durP1;ratioP1;P1;durP2;ratioP2;P2;SDS_P1;SDS_P2;PMS_P1;PMS_P2;Temp;Humidity;BMP_temperature;BMP_pressure;BME280_temperature;BME280_humidity;BME280_pressure;Samples;Min_cycle;Max_cycle;Signal;HPM_P1;HPM_P2
2022/11/30 00:00:56;;;;;;;62.17;33.80;;;6.20;99.90;;;;;;6212609;23;20012;-79
2022/11/30 00:03:22;;;;;;;55.75;32.20;;;6.30;99.90;;;;;;6187015;23;20474;-82
2022/11/30 00:05:48;;;;;;;54.22;31.30;;;6.10;99.90;;;;;;6211854;23;20013;-80
2022/11/30 00:08:14;;;;;;;62.42;34.85;;;6.20;99.90;;;;;;6185986;23;20015;-79
2022/11/30 00:10:40;;;;;;;59.63;33.75;;;5.90;99.90;;;;;;6212061;23;20162;-78
2022/11/30 00:13:06;;;;;;;63.55;33.72;;;6.00;99.90;;;;;;6187165;23;20032;-83
2022/11/30 00:15:32;;;;;;;61.97;34.45;;;6.20;99.90;;;;;;6212540;23;20059;-83
2022/11/30 00:17:59;;;;;;;61.55;32.90;;;6.10;99.90;;;;;;6212876;23;20079;-81
2022/11/30 00:20:27;;;;;;;61.28;35.25;;;6.10;99.90;;;;;;6187980;23;20017;-81
2022/11/30 00:22:55;;;;;;;57.28;34.05;;;6.30;99.90;;;;;;6214093;23;20428;-82
2022/11/30 00:25:21;;;;;;;58.13;33.67;;;5.90;99.90;;;;;;6210355;23;20091;-84
2022/11/30 00:27:46;;;;;;;62.17;33.65;;;6.10;99.90;;;;;;6211602;23;20047;-84
2022/11/30 00:30:13;;;;;;;65.63;34.67;;;6.20;99.90;;;;;;6186963;23;20078;-81
2022/11/30 00:32:57;;;;;;;59.50;33.58;;;6.00;99.90;;;;;;6212806;23;20036;-78
2022/11/30 00:35:23;;;;;;;56.28;32.50;;;6.00;99.90;;;;;;6191192;23;20012;-79
2022/11/30 00:37:49;;;;;;;60.42;33.72;;;5.90;99.90;;;;;;6193530;23;20344;-80
2022/11/30 00:40:14;;;;;;;63.47;33.60;;;5.80;99.90;;;;;;6216434;23;20023;-78
2022/11/30 00:42:41;;;;;;;65.15;32.50;;;5.70;99.90;;;;;;6192610;23;20420;-80
2022/11/30 00:45:07;;;;;;;66.80;34.53;;;5.70;99.90;;;;;;6187828;23;20087;-86
2022/11/30 00:47:33;;;;;;;72.03;35.40;;;5.30;99.90;;;;;;6187379;23;20061;-87
2022/11/30 00:49:58;;;;;;;56.25;31.63;;;5.30;99.90;;;;;;6213117;23;20304;-85
2022/11/30 00:52:24;;;;;;;57.47;31.58;;;5.40;99.90;;;;;;6191547;23;20017;-82
2022/11/30 00:54:49;;;;;;;56.95;31.20;;;5.50;99.90;;;;;;6216680;23;20088;-79
2022/11/30 00:57:15;;;;;;;63.92;33.00;;;5.20;99.90;;;;;;6217707;23;20017;-80
2022/11/30 00:59:41;;;;;;;61.92;34.13;;;5.30;99.90;;;;;;6189773;23;20092;-84
2022/11/30 01:02:07;;;;;;;65.43;34.42;;;5.30;99.90;;;;;;6214187;23;20013;-82
2022/11/30 01:04:33;;;;;;;66.28;35.65;;;5.30;99.90;;;;;;6212944;23;20044;-82
2022/11/30 01:06:58;;;;;;;63.67;34.85;;;5.50;99.90;;;;;;6212605;23;20028;-82
2022/11/30 01:09:24;;;;;;;59.60;33.42;;;5.50;99.90;;;;;;6186196;23;20386;-81
2022/11/30 01:11:50;;;;;;;72.90;39.58;;;5.50;99.90;;;;;;6188771;23;20058;-82
2022/11/30 01:14:15;;;;;;;71.55;38.85;;;5.60;99.90;;;;;;6244816;23;20126;-85
2022/11/30 01:16:42;;;;;;;81.10;39.88;;;6.00;99.90;;;;;;6216985;23;20448;-82
2022/11/30 01:19:07;;;;;;;77.57;43.05;;;5.70;99.90;;;;;;6191370;23;20683;-85
2022/11/30 01:21:33;;;;;;;81.38;42.92;;;5.70;99.90;;;;;;6216773;23;20044;-81
2022/11/30 01:23:59;;;;;;;82.90;43.50;;;5.80;99.90;;;;;;6216489;23;20019;-80
2022/11/30 01:26:24;;;;;;;79.07;46.00;;;5.80;99.90;;;;;;6217497;23;20012;-83
2022/11/30 01:28:55;;;;;;;88.45;48.47;;;6.00;99.90;;;;;;6216508;23;20401;-78
2022/11/30 01:31:25;;;;;;;89.20;47.78;;;6.10;99.90;;;;;;6216217;23;20012;-81
2022/11/30 01:33:52;;;;;;;85.90;48.92;;;6.20;99.90;;;;;;6216037;23;20016;-80
2022/11/30 01:36:24;;;;;;;86.57;50.50;;;6.00;99.90;;;;;;6216650;23;20019;-81
2022/11/30 01:38:53;;;;;;;87.32;45.45;;;6.10;99.90;;;;;;6190540;23;20004;-79
2022/11/30 01:41:22;;;;;;;93.68;50.30;;;6.20;99.90;;;;;;6216424;23;20440;-84
2022/11/30 01:43:51;;;;;;;89.90;48.38;;;6.30;99.90;;;;;;6216419;23;20062;-84
2022/11/30 01:46:25;;;;;;;75.63;43.30;;;6.10;99.90;;;;;;6191455;23;20012;-84
2022/11/30 01:48:59;;;;;;;79.30;43.15;;;6.30;99.90;;;;;;6215864;23;20509;-80
2022/11/30 01:51:29;;;;;;;80.53;43.40;;;6.20;99.90;;;;;;6216224;23;20083;-84
2022/11/30 01:53:55;;;;;;;70.30;41.55;;;6.10;99.90;;;;;;6166093;23;20077;-79
2022/11/30 01:56:20;;;;;;;70.18;42.08;;;6.10;99.90;;;;;;6191596;23;20087;-86
2022/11/30 01:58:47;;;;;;;73.63;41.47;;;6.10;99.90;;;;;;6216089;23;20030;-84
2022/11/30 02:01:12;;;;;;;72.90;39.70;;;6.40;99.90;;;;;;6216957;23;20100;-81
2022/11/30 02:03:54;;;;;;;78.10;42.40;;;6.20;99.90;;;;;;6190649;23;20556;-83
2022/11/30 02:06:23;;;;;;;71.10;38.33;;;6.10;99.90;;;;;;6192405;23;20044;-84
2022/11/30 02:08:50;;;;;;;71.97;36.13;;;6.10;99.90;;;;;;6192194;23;20439;-82
2022/11/30 02:11:16;;;;;;;76.35;38.55;;;6.50;99.90;;;;;;6221184;23;20024;-82
2022/11/30 02:13:51;;;;;;;81.90;44.13;;;6.30;99.90;;;;;;6220750;23;20024;-83
2022/11/30 02:16:37;;;;;;;83.00;46.03;;;6.10;99.90;;;;;;6219682;23;20432;-84
2022/11/30 02:19:26;;;;;;;78.53;42.78;;;6.40;99.90;;;;;;6218345;23;20012;-82
2022/11/30 02:21:57;;;;;;;75.20;40.63;;;6.40;99.90;;;;;;6220070;23;20020;-81
2022/11/30 02:24:55;;;;;;;74.32;39.28;;;6.40;99.90;;;;;;6208930;23;20042;-77
2022/11/30 02:27:39;;;;;;;67.40;34.17;;;6.40;99.90;;;;;;6079539;23;20105;-83
2022/11/30 02:30:13;;;;;;;65.10;34.08;;;6.20;99.90;;;;;;6069295;23;20057;-83
2022/11/30 02:32:53;;;;;;;69.40;34.60;;;6.10;99.90;;;;;;6069265;23;20102;-85
2022/11/30 02:35:21;;;;;;;67.95;34.63;;;5.90;99.90;;;;;;6069193;23;20054;-83
2022/11/30 02:37:49;;;;;;;77.57;36.50;;;6.20;99.90;;;;;;6068825;23;20485;-82
2022/11/30 02:40:17;;;;;;;79.50;36.67;;;6.10;99.90;;;;;;6067998;23;20456;-80
2022/11/30 02:42:43;;;;;;;74.22;37.70;;;6.00;99.90;;;;;;6021651;23;20467;-80
2022/11/30 02:45:10;;;;;;;76.38;36.40;;;5.90;99.90;;;;;;6092761;23;20018;-83
2022/11/30 02:47:42;;;;;;;75.88;35.50;;;5.90;99.90;;;;;;6072351;23;20060;-83
2022/11/30 02:50:14;;;;;;;73.45;34.40;;;6.20;99.90;;;;;;6070477;23;20120;-82
2022/11/30 02:52:40;;;;;;;70.95;34.47;;;6.20;99.90;;;;;;6073221;23;20463;-81
2022/11/30 02:55:09;;;;;;;75.18;35.78;;;5.90;99.90;;;;;;6072888;23;20044;-81
2022/11/30 02:57:35;;;;;;;67.07;34.60;;;6.10;99.90;;;;;;6068719;23;20061;-80
2022/11/30 03:00:06;;;;;;;72.05;35.78;;;6.00;99.90;;;;;;6091947;23;20154;-84
2022/11/30 03:02:32;;;;;;;79.05;34.33;;;5.90;99.90;;;;;;6068377;23;20018;-82
2022/11/30 03:04:58;;;;;;;76.40;35.97;;;6.00;99.90;;;;;;6195046;23;20016;-82
2022/11/30 03:07:24;;;;;;;80.75;35.22;;;6.20;99.90;;;;;;6218419;23;20124;-84
2022/11/30 03:09:49;;;;;;;80.70;36.30;;;6.20;99.90;;;;;;6217031;23;20289;-85
2022/11/30 03:12:15;;;;;;;75.72;36.00;;;6.10;99.90;;;;;;6217330;23;20016;-84
2022/11/30 03:14:41;;;;;;;86.47;37.40;;;6.20;99.90;;;;;;6217609;23;20026;-84
2022/11/30 03:17:07;;;;;;;84.45;37.03;;;6.00;99.90;;;;;;6193142;23;20023;-84
2022/11/30 03:19:33;;;;;;;80.20;38.58;;;5.80;99.90;;;;;;6192590;23;20040;-84
2022/11/30 03:21:58;;;;;;;84.45;37.47;;;6.10;99.90;;;;;;6217607;23;20027;-79
2022/11/30 03:24:24;;;;;;;85.47;37.92;;;6.00;99.90;;;;;;6216886;23;20018;-81
2022/11/30 03:26:51;;;;;;;79.40;36.55;;;6.00;99.90;;;;;;6218082;23;20076;-83
2022/11/30 03:29:17;;;;;;;83.95;38.53;;;5.80;99.90;;;;;;6217295;23;20016;-79
2022/11/30 03:31:42;;;;;;;79.45;37.22;;;5.90;99.90;;;;;;6217866;23;20368;-83
2022/11/30 03:34:08;;;;;;;87.35;38.20;;;6.10;99.90;;;;;;6217716;23;20073;-82
2022/11/30 03:36:34;;;;;;;82.25;37.03;;;5.90;99.90;;;;;;6192386;23;20016;-83
2022/11/30 03:39:00;;;;;;;79.25;38.88;;;5.90;99.90;;;;;;6217097;23;20069;-79
2022/11/30 03:41:25;;;;;;;80.35;38.10;;;5.90;99.90;;;;;;6217595;23;20385;-83
2022/11/30 03:43:51;;;;;;;79.82;37.40;;;6.00;99.90;;;;;;6191438;23;20065;-85
2022/11/30 03:46:17;;;;;;;80.18;36.70;;;6.10;99.90;;;;;;6217675;23;20012;-82
2022/11/30 03:48:42;;;;;;;79.80;37.10;;;5.90;99.90;;;;;;6217985;23;20016;-81
2022/11/30 03:51:10;;;;;;;75.70;36.85;;;5.80;99.90;;;;;;6194308;23;20020;-81
2022/11/30 03:53:36;;;;;;;74.47;36.40;;;6.10;99.90;;;;;;6196926;23;20381;-78
2022/11/30 03:56:04;;;;;;;76.65;36.80;;;6.10;99.90;;;;;;6209741;23;20070;-79
2022/11/30 03:58:30;;;;;;;76.78;37.10;;;6.20;99.90;;;;;;6206349;23;20008;-78
2022/11/30 04:01:18;;;;;;;76.35;37.53;;;5.90;99.90;;;;;;6227299;23;20377;-79
2022/11/30 04:03:44;;;;;;;69.25;35.80;;;5.90;99.90;;;;;;6220599;23;20064;-78
2022/11/30 04:06:11;;;;;;;78.15;37.47;;;6.00;99.90;;;;;;6220083;23;20043;-83
2022/11/30 04:08:37;;;;;;;73.82;36.08;;;6.10;99.90;;;;;;6217255;23;20024;-82
2022/11/30 04:11:04;;;;;;;75.63;37.40;;;6.20;99.90;;;;;;6218200;23;20054;-77
2022/11/30 04:13:32;;;;;;;66.85;34.75;;;6.10;99.90;;;;;;6192335;23;20016;-77
2022/11/30 04:15:58;;;;;;;65.57;33.45;;;6.30;99.90;;;;;;6192406;23;20011;-83
2022/11/30 04:18:25;;;;;;;66.60;34.08;;;6.20;99.90;;;;;;6191741;22;20008;-78
2022/11/30 04:20:53;;;;;;;58.25;33.88;;;6.00;99.90;;;;;;6193349;23;20019;-80
2022/11/30 04:23:20;;;;;;;63.25;34.53;;;6.10;99.90;;;;;;6218032;23;20023;-81
2022/11/30 04:25:46;;;;;;;68.57;34.72;;;6.20;99.90;;;;;;6217688;23;20012;-84
2022/11/30 04:28:14;;;;;;;64.75;34.50;;;6.00;99.90;;;;;;6217197;23;20027;-80
2022/11/30 04:30:40;;;;;;;63.22;34.30;;;6.30;99.90;;;;;;6192182;23;20066;-82
2022/11/30 04:33:06;;;;;;;62.17;34.40;;;6.30;99.90;;;;;;6191930;23;20424;-83
2022/11/30 04:35:32;;;;;;;60.47;33.10;;;6.10;99.90;;;;;;6191462;23;20031;-84
2022/11/30 04:37:59;;;;;;;66.18;35.03;;;6.30;99.90;;;;;;6217179;23;20062;-84
2022/11/30 04:40:25;;;;;;;68.38;34.00;;;6.40;99.90;;;;;;6216733;23;20336;-79
2022/11/30 04:42:51;;;;;;;70.72;35.03;;;6.40;99.90;;;;;;6192423;23;20016;-83
2022/11/30 04:45:16;;;;;;;76.72;34.50;;;6.10;99.90;;;;;;6217118;23;20070;-80
2022/11/30 04:47:42;;;;;;;78.07;34.83;;;6.10;99.90;;;;;;6191986;23;20050;-84
2022/11/30 04:50:08;;;;;;;72.05;33.90;;;6.30;99.90;;;;;;6192225;23;20459;-84
2022/11/30 04:52:34;;;;;;;77.28;35.70;;;6.20;99.90;;;;;;6216186;23;20020;-80
2022/11/30 04:55:00;;;;;;;77.22;35.00;;;6.10;99.90;;;;;;6192008;23;20436;-85
2022/11/30 04:57:26;;;;;;;93.47;36.72;;;6.30;99.90;;;;;;6192435;23;20012;-83
2022/11/30 04:59:52;;;;;;;86.60;36.58;;;6.10;99.90;;;;;;6217245;23;20040;-82
2022/11/30 05:02:17;;;;;;;91.95;37.60;;;6.40;99.90;;;;;;6217782;23;20122;-82
2022/11/30 05:04:43;;;;;;;93.07;38.30;;;6.20;99.90;;;;;;6220212;23;20015;-82
2022/11/30 05:07:09;;;;;;;95.45;37.28;;;6.40;99.90;;;;;;6220136;23;20016;-82
2022/11/30 05:09:34;;;;;;;100.78;38.65;;;6.40;99.90;;;;;;6195445;23;20016;-82
2022/11/30 05:12:03;;;;;;;98.30;37.53;;;6.20;99.90;;;;;;6244615;23;20028;-79
2022/11/30 05:14:29;;;;;;;88.97;36.28;;;6.30;99.90;;;;;;6217132;23;20039;-87
2022/11/30 05:16:55;;;;;;;97.80;38.22;;;6.40;99.90;;;;;;6217196;23;20365;-83
2022/11/30 05:19:20;;;;;;;94.65;37.03;;;6.10;99.90;;;;;;6192310;23;20013;-81
2022/11/30 05:21:47;;;;;;;97.80;37.90;;;6.20;99.90;;;;;;6192912;23;20515;-83
2022/11/30 05:24:13;;;;;;;98.78;38.30;;;6.10;99.90;;;;;;6217491;23;20502;-83
2022/11/30 05:26:39;;;;;;;99.05;37.47;;;6.10;99.90;;;;;;6196267;23;20016;-79
2022/11/30 05:29:05;;;;;;;106.15;38.42;;;6.40;99.90;;;;;;6202859;23;20013;-79
2022/11/30 05:31:31;;;;;;;95.32;36.42;;;6.20;99.90;;;;;;6198654;23;20011;-81
2022/11/30 05:33:57;;;;;;;98.40;36.95;;;6.10;99.90;;;;;;6218241;23;20371;-80
2022/11/30 05:36:23;;;;;;;91.93;36.13;;;6.20;99.90;;;;;;6194647;23;20020;-84
2022/11/30 05:38:49;;;;;;;91.78;36.47;;;6.20;99.90;;;;;;6222006;23;20008;-80
2022/11/30 05:41:15;;;;;;;84.93;34.28;;;6.30;99.90;;;;;;6221863;23;20325;-78
2022/11/30 05:43:41;;;;;;;87.57;35.00;;;6.40;99.90;;;;;;6220430;23;20019;-79
2022/11/30 05:46:22;;;;;;;78.60;33.97;;;6.20;99.90;;;;;;6245107;23;20004;-82
2022/11/30 05:48:47;;;;;;;88.28;36.97;;;6.30;99.90;;;;;;6197629;23;20091;-82
2022/11/30 05:51:16;;;;;;;89.72;33.95;;;6.10;99.90;;;;;;6221764;23;20023;-83
2022/11/30 05:53:42;;;;;;;84.68;34.15;;;6.10;99.90;;;;;;6195839;23;20252;-81
2022/11/30 05:56:11;;;;;;;85.50;33.55;;;6.10;99.90;;;;;;6249055;23;20036;-82
2022/11/30 05:58:37;;;;;;;83.50;35.03;;;6.30;99.90;;;;;;6219865;23;20394;-82
2022/11/30 06:01:04;;;;;;;81.40;34.65;;;6.00;99.90;;;;;;6194192;23;20099;-85
2022/11/30 06:03:31;;;;;;;85.70;34.22;;;6.00;99.90;;;;;;6193487;23;20447;-82
2022/11/30 06:05:57;;;;;;;79.10;33.33;;;6.10;99.90;;;;;;6194080;23;20008;-84
2022/11/30 06:08:26;;;;;;;88.95;34.35;;;6.00;99.90;;;;;;6193028;23;20070;-79
2022/11/30 06:10:52;;;;;;;77.15;32.72;;;6.00;99.90;;;;;;6218612;23;20039;-85
2022/11/30 06:13:18;;;;;;;82.20;32.03;;;6.00;99.90;;;;;;6215598;23;20083;-80
2022/11/30 06:15:44;;;;;;;82.55;32.40;;;6.00;99.90;;;;;;6189978;23;20116;-85
2022/11/30 06:18:12;;;;;;;81.63;32.15;;;5.90;99.90;;;;;;6214648;23;20119;-80
2022/11/30 06:20:39;;;;;;;81.80;30.58;;;6.20;99.90;;;;;;6190973;23;20108;-82
2022/11/30 06:23:04;;;;;;;69.15;31.02;;;6.30;99.90;;;;;;6190053;23;20017;-78
2022/11/30 06:25:31;;;;;;;82.05;31.75;;;5.90;99.90;;;;;;6190492;23;20009;-80
2022/11/30 06:27:57;;;;;;;72.97;30.75;;;6.20;99.90;;;;;;6189925;23;20020;-82
2022/11/30 06:30:23;;;;;;;63.53;28.02;;;6.00;99.90;;;;;;6190086;23;20024;-82
2022/11/30 06:32:50;;;;;;;67.35;29.25;;;5.90;99.90;;;;;;6214941;23;20096;-80
2022/11/30 06:35:17;;;;;;;66.75;28.50;;;5.90;99.90;;;;;;6214789;23;20017;-82
2022/11/30 06:37:43;;;;;;;69.18;28.70;;;5.90;99.90;;;;;;6189817;23;20359;-78
2022/11/30 06:40:11;;;;;;;65.13;28.23;;;6.10;99.90;;;;;;6189570;23;20439;-83
2022/11/30 06:42:38;;;;;;;63.60;28.92;;;6.10;99.90;;;;;;6189827;23;20008;-84
2022/11/30 06:45:06;;;;;;;54.10;25.95;;;6.00;99.90;;;;;;6190058;23;20013;-84
2022/11/30 06:47:32;;;;;;;55.40;26.55;;;5.80;99.90;;;;;;6164965;23;20016;-82
2022/11/30 06:49:57;;;;;;;51.90;24.65;;;5.80;99.90;;;;;;6215886;23;20044;-80
2022/11/30 06:52:23;;;;;;;53.28;25.50;;;6.00;99.90;;;;;;6214756;23;20408;-82
2022/11/30 06:54:49;;;;;;;57.70;26.13;;;6.30;99.90;;;;;;6190070;23;20008;-81
2022/11/30 06:57:15;;;;;;;56.50;25.95;;;6.10;99.90;;;;;;6223649;23;20013;-78
2022/11/30 06:59:43;;;;;;;52.78;25.50;;;6.10;99.90;;;;;;6226912;23;20012;-78
2022/11/30 07:02:11;;;;;;;49.97;24.58;;;5.80;99.90;;;;;;6223013;23;20538;-78
2022/11/30 07:04:36;;;;;;;54.38;25.42;;;5.90;99.90;;;;;;6189497;23;20016;-85
2022/11/30 07:07:02;;;;;;;53.95;26.17;;;5.80;99.90;;;;;;6213629;23;20028;-81
2022/11/30 07:09:28;;;;;;;54.15;24.77;;;5.80;99.90;;;;;;6188196;23;20044;-79
2022/11/30 07:11:53;;;;;;;55.78;26.02;;;6.00;99.90;;;;;;6213253;23;20032;-86
2022/11/30 07:14:20;;;;;;;59.00;26.67;;;6.00;99.90;;;;;;6189485;23;20113;-83
2022/11/30 07:16:46;;;;;;;56.95;25.55;;;5.90;99.90;;;;;;6214581;23;20456;-81
2022/11/30 07:19:12;;;;;;;52.03;24.98;;;6.00;99.90;;;;;;6190320;23;20014;-78
2022/11/30 07:21:37;;;;;;;56.00;26.42;;;6.00;99.90;;;;;;6193896;23;20070;-82
2022/11/30 07:26:47;;;;;;;53.67;24.75;;;5.90;99.90;;;;;;6212959;23;20128;-82
2022/11/30 07:29:13;;;;;;;54.92;24.67;;;6.00;99.90;;;;;;6188168;23;20012;-82
2022/11/30 07:35:19;;;;;;;53.67;24.05;;;5.80;99.90;;;;;;6214905;23;20066;-82
2022/11/30 07:37:45;;;;;;;51.72;24.60;;;5.90;99.90;;;;;;6190507;23;20020;-81
2022/11/30 07:40:11;;;;;;;49.10;23.48;;;5.80;99.90;;;;;;6190665;23;20051;-80
2022/11/30 07:42:36;;;;;;;53.17;25.33;;;6.00;99.90;;;;;;6214081;23;20018;-84
2022/11/30 07:45:02;;;;;;;54.45;24.50;;;6.00;99.90;;;;;;6187365;23;20087;-82
2022/11/30 07:47:28;;;;;;;47.63;23.00;;;5.70;99.90;;;;;;6187878;23;20013;-81
2022/11/30 07:49:53;;;;;;;51.88;23.42;;;6.00;99.90;;;;;;6187058;23;20035;-87
2022/11/30 07:52:19;;;;;;;49.47;23.98;;;5.80;99.90;;;;;;6186783;23;20316;-80
2022/11/30 07:54:45;;;;;;;49.35;24.48;;;6.00;99.90;;;;;;6211587;23;20017;-82
2022/11/30 07:57:12;;;;;;;50.95;23.05;;;5.90;99.90;;;;;;6187284;23;20020;-87
2022/11/30 07:59:37;;;;;;;56.97;24.80;;;6.00;99.90;;;;;;6212076;23;20074;-82
2022/11/30 08:02:03;;;;;;;56.30;25.63;;;5.80;99.90;;;;;;6212814;23;20017;-82
2022/11/30 08:04:28;;;;;;;56.10;24.70;;;5.90;99.90;;;;;;6187327;23;20008;-80
2022/11/30 08:06:54;;;;;;;52.97;24.55;;;5.80;99.90;;;;;;6212786;23;20439;-83
2022/11/30 08:09:20;;;;;;;60.95;27.33;;;6.00;99.90;;;;;;6211429;23;20504;-80
2022/11/30 08:11:47;;;;;;;49.58;24.25;;;6.00;99.90;;;;;;6171817;23;20409;-78
2022/11/30 08:14:13;;;;;;;52.20;25.95;;;5.70;99.90;;;;;;6187209;23;20092;-80
2022/11/30 08:16:39;;;;;;;56.13;24.00;;;5.70;99.90;;;;;;6163149;23;20009;-81
2022/11/30 08:19:05;;;;;;;46.58;24.17;;;5.80;99.90;;;;;;6162702;23;20384;-82
2022/11/30 08:21:31;;;;;;;49.80;24.10;;;5.90;99.90;;;;;;6162944;23;20020;-83
2022/11/30 08:23:57;;;;;;;44.03;22.52;;;5.90;99.90;;;;;;6161801;23;20473;-81
2022/11/30 08:26:23;;;;;;;40.30;22.85;;;6.00;99.90;;;;;;6138894;23;20070;-81
2022/11/30 08:28:50;;;;;;;48.10;23.38;;;6.00;99.90;;;;;;6165947;23;20062;-81
2022/11/30 08:31:56;;;;;;;47.15;23.75;;;5.80;99.90;;;;;;6195012;23;20087;-79
2022/11/30 08:34:22;;;;;;;43.47;22.83;;;5.90;99.90;;;;;;6164635;23;20379;-83
2022/11/30 08:36:48;;;;;;;39.83;22.55;;;6.00;99.90;;;;;;6162407;23;20047;-83
2022/11/30 08:39:14;;;;;;;41.95;23.23;;;5.90;99.90;;;;;;6161751;23;20012;-85
2022/11/30 08:41:40;;;;;;;40.13;21.73;;;5.80;99.90;;;;;;6162252;23;20421;-81
2022/11/30 08:44:06;;;;;;;43.25;23.05;;;5.80;99.90;;;;;;6187134;23;20044;-79
2022/11/30 08:46:37;;;;;;;44.13;21.92;;;6.10;99.90;;;;;;6186844;23;20020;-83
2022/11/30 08:49:04;;;;;;;43.10;23.00;;;5.90;99.90;;;;;;6186933;23;20016;-82
2022/11/30 08:51:29;;;;;;;42.83;23.05;;;6.10;99.90;;;;;;6188850;23;20420;-82
2022/11/30 08:53:56;;;;;;;44.78;23.98;;;5.90;99.90;;;;;;6164911;23;20012;-79
2022/11/30 08:56:22;;;;;;;40.95;21.88;;;6.10;99.90;;;;;;6165176;23;20016;-78
2022/11/30 08:58:48;;;;;;;44.20;23.90;;;6.00;99.90;;;;;;6188023;23;20008;-86
2022/11/30 09:01:23;;;;;;;47.38;23.88;;;6.00;99.90;;;;;;6187369;23;20425;-82
2022/11/30 09:03:52;;;;;;;42.97;23.80;;;6.00;99.90;;;;;;6162180;23;20063;-82
2022/11/30 09:06:23;;;;;;;47.30;24.42;;;6.30;99.90;;;;;;6188421;23;20016;-84
2022/11/30 09:08:51;;;;;;;45.97;25.30;;;5.90;99.90;;;;;;6185994;23;20063;-83
2022/11/30 09:11:19;;;;;;;47.00;25.58;;;6.10;99.90;;;;;;6193421;23;20024;-83
2022/11/30 09:13:49;;;;;;;46.00;24.98;;;6.10;99.90;;;;;;6211990;23;20070;-83
2022/11/30 09:16:16;;;;;;;49.17;26.58;;;6.00;99.90;;;;;;6212747;23;20024;-82
2022/11/30 09:18:43;;;;;;;44.90;25.25;;;6.20;99.90;;;;;;6186986;23;20285;-86
2022/11/30 09:21:11;;;;;;;51.90;25.30;;;6.00;99.90;;;;;;6212556;23;20178;-81
2022/11/30 09:23:37;;;;;;;48.05;26.00;;;6.10;99.90;;;;;;6211786;23;20057;-81
2022/11/30 09:26:06;;;;;;;47.22;26.02;;;6.30;99.90;;;;;;6212969;23;20115;-82
2022/11/30 09:28:33;;;;;;;50.58;27.13;;;6.10;99.90;;;;;;6212611;23;20027;-80
2022/11/30 09:31:21;;;;;;;49.03;25.58;;;6.10;99.90;;;;;;6187371;23;20075;-82
2022/11/30 09:33:47;;;;;;;51.40;26.05;;;6.30;99.90;;;;;;6188578;23;20020;-83
2022/11/30 09:36:16;;;;;;;49.28;26.25;;;6.30;99.90;;;;;;6162854;23;20013;-82
2022/11/30 09:38:41;;;;;;;53.08;27.88;;;6.20;99.90;;;;;;6219706;23;20013;-81
2022/11/30 09:41:29;;;;;;;55.25;27.52;;;6.40;99.90;;;;;;6195963;23;20023;-82
2022/11/30 09:44:13;;;;;;;52.60;27.58;;;6.30;99.90;;;;;;6219497;23;20012;-81
2022/11/30 09:46:47;;;;;;;54.60;28.02;;;6.30;99.90;;;;;;6187993;23;20012;-85
2022/11/30 09:49:25;;;;;;;54.50;27.25;;;6.40;99.90;;;;;;6163030;23;20063;-83
2022/11/30 09:51:54;;;;;;;56.83;28.63;;;6.50;99.90;;;;;;6221812;23;20043;-83
2022/11/30 09:54:21;;;;;;;55.65;26.67;;;6.30;99.90;;;;;;6214204;23;20024;-84
2022/11/30 09:56:47;;;;;;;53.28;27.63;;;6.40;99.90;;;;;;6188833;23;20016;-80
2022/11/30 09:59:20;;;;;;;52.95;28.17;;;6.30;99.90;;;;;;6188546;23;20102;-84
2022/11/30 10:01:47;;;;;;;55.22;27.48;;;6.40;99.90;;;;;;6195469;23;20013;-80
2022/11/30 10:04:23;;;;;;;49.50;26.45;;;6.40;99.90;;;;;;6197864;23;20017;-80
2022/11/30 10:06:57;;;;;;;52.80;27.73;;;6.40;99.90;;;;;;6189893;23;20012;-79
2022/11/30 10:09:54;;;;;;;52.78;28.10;;;6.40;99.90;;;;;;6212409;23;20012;-78
2022/11/30 10:12:32;;;;;;;50.60;27.67;;;6.60;99.90;;;;;;6170706;23;20441;-83
2022/11/30 10:15:11;;;;;;;53.55;28.20;;;6.40;99.90;;;;;;6164061;23;20366;-84
2022/11/30 10:18:21;;;;;;;57.50;28.23;;;6.60;99.90;;;;;;6187411;23;20071;-79
2022/11/30 10:21:05;;;;;;;53.30;29.20;;;6.60;99.90;;;;;;6046181;23;20019;-81
2022/11/30 10:23:49;;;;;;;52.78;28.75;;;6.60;99.90;;;;;;6026169;23;20070;-80
2022/11/30 10:26:19;;;;;;;51.50;28.52;;;6.50;99.90;;;;;;6044124;23;20321;-82
2022/11/30 10:28:53;;;;;;;56.65;29.38;;;6.60;99.90;;;;;;6017775;23;20019;-83
2022/11/30 10:31:27;;;;;;;49.40;28.98;;;6.40;99.90;;;;;;6040134;23;20023;-84
2022/11/30 10:33:57;;;;;;;54.25;29.27;;;6.60;99.90;;;;;;6040088;23;20015;-82
2022/11/30 10:36:39;;;;;;;58.03;30.98;;;6.50;99.90;;;;;;6017792;23;20029;-79
2022/11/30 10:39:15;;;;;;;53.45;30.20;;;6.50;99.90;;;;;;6016196;23;20050;-79
2022/11/30 10:41:50;;;;;;;55.50;30.55;;;6.30;99.90;;;;;;6041747;23;20011;-80
2022/11/30 10:44:23;;;;;;;52.53;30.30;;;6.30;99.90;;;;;;6041413;23;20018;-79
2022/11/30 10:46:59;;;;;;;53.00;30.00;;;6.30;99.90;;;;;;6041289;23;20014;-85
2022/11/30 10:49:29;;;;;;;53.85;29.27;;;6.40;99.90;;;;;;6064927;23;20045;-83
2022/11/30 10:52:01;;;;;;;53.08;31.23;;;6.40;99.90;;;;;;6041444;23;20387;-80
2022/11/30 10:54:28;;;;;;;50.75;29.27;;;6.50;99.90;;;;;;6041095;23;20023;-84
2022/11/30 10:56:55;;;;;;;48.55;29.50;;;6.60;99.90;;;;;;6057247;23;20018;-79
2022/11/30 10:59:55;;;;;;;50.63;29.30;;;6.40;99.90;;;;;;6189350;23;20009;-79
2022/11/30 11:02:34;;;;;;;46.28;27.83;;;6.50;99.90;;;;;;6022502;23;20015;-79
2022/11/30 11:05:29;;;;;;;45.88;25.38;;;6.50;99.90;;;;;;6045700;23;20094;-79
2022/11/30 11:07:58;;;;;;;45.67;26.40;;;6.60;99.90;;;;;;6041938;23;20423;-80
2022/11/30 11:10:31;;;;;;;42.85;26.73;;;6.60;99.90;;;;;;6017205;23;20119;-82
2022/11/30 11:12:57;;;;;;;45.05;27.80;;;6.60;99.90;;;;;;6069012;23;20034;-78
2022/11/30 11:15:28;;;;;;;46.05;28.48;;;6.60;99.90;;;;;;6046774;23;20494;-80
2022/11/30 11:21:35;;;;;;;45.42;27.40;;;6.80;99.90;;;;;;6095633;23;20013;-82
2022/11/30 11:24:08;;;;;;;46.40;29.33;;;6.70;99.90;;;;;;6074939;23;20040;-79
2022/11/30 11:26:34;;;;;;;44.38;27.83;;;6.70;99.90;;;;;;6083454;23;20205;-80
2022/11/30 11:29:00;;;;;;;49.70;28.50;;;6.80;99.90;;;;;;6085418;23;20018;-80
2022/11/30 11:35:55;;;;;;;44.80;28.63;;;6.80;99.90;;;;;;6107854;23;20017;-79
2022/11/30 11:38:27;;;;;;;53.83;31.17;;;6.80;99.90;;;;;;6149642;23;20016;-78
2022/11/30 11:41:03;;;;;;;51.60;31.13;;;6.70;99.90;;;;;;6202423;23;20028;-79
2022/11/30 11:43:39;;;;;;;48.45;31.02;;;6.60;99.90;;;;;;6176030;23;20017;-79
2022/11/30 11:46:12;;;;;;;50.65;29.80;;;6.50;99.90;;;;;;6141523;23;20082;-82
2022/11/30 11:48:45;;;;;;;51.70;30.38;;;6.60;99.90;;;;;;6189325;23;20094;-83
2022/11/30 11:51:27;;;;;;;53.72;31.90;;;6.60;99.90;;;;;;6189870;23;20008;-85
2022/11/30 11:53:57;;;;;;;55.28;31.35;;;6.70;99.90;;;;;;6163678;23;20432;-81
2022/11/30 11:56:32;;;;;;;50.17;30.85;;;6.90;99.90;;;;;;6214802;23;20024;-81
2022/11/30 11:59:13;;;;;;;48.88;30.48;;;6.70;99.90;;;;;;6195856;23;20028;-80
2022/11/30 12:01:43;;;;;;;49.03;29.95;;;6.70;99.90;;;;;;6167146;23;20031;-82
2022/11/30 12:04:30;;;;;;;47.58;30.70;;;6.60;99.90;;;;;;6190763;23;20047;-86
2022/11/30 12:06:58;;;;;;;51.88;30.05;;;6.50;99.90;;;;;;6215085;23;20336;-81
2022/11/30 12:09:36;;;;;;;46.42;29.45;;;6.60;99.90;;;;;;6162862;23;20328;-85
2022/11/30 12:12:02;;;;;;;54.53;30.25;;;6.50;99.90;;;;;;6199849;23;20020;-86
2022/11/30 12:14:31;;;;;;;48.60;29.90;;;6.50;99.90;;;;;;6212921;23;20416;-85
2022/11/30 12:17:04;;;;;;;51.17;29.67;;;6.70;99.90;;;;;;6162559;23;20510;-84
2022/11/30 12:20:13;;;;;;;48.97;29.35;;;6.60;99.90;;;;;;6187142;23;20099;-85
2022/11/30 12:23:15;;;;;;;46.67;29.05;;;6.60;99.90;;;;;;6214597;23;20023;-82
2022/11/30 12:25:58;;;;;;;47.95;27.98;;;6.50;99.90;;;;;;6212614;23;20102;-84
2022/11/30 12:28:33;;;;;;;47.33;27.60;;;6.60;99.90;;;;;;6165263;23;20169;-83
2022/11/30 12:31:15;;;;;;;49.90;29.38;;;6.60;99.90;;;;;;6214543;23;20024;-82
2022/11/30 12:34:00;;;;;;;47.47;27.92;;;6.60;99.90;;;;;;6187090;23;20118;-80
2022/11/30 12:36:35;;;;;;;;;;;6.60;99.90;;;;;;6188428;23;20318;-82
2022/11/30 12:39:22;;;;;;;51.90;29.57;;;6.60;99.90;;;;;;6211653;23;20234;-86
2022/11/30 12:41:53;;;;;;;53.13;30.25;;;6.60;99.90;;;;;;6214452;23;20008;-82
2022/11/30 12:45:06;;;;;;;55.20;32.22;;;6.60;99.90;;;;;;6211853;23;20013;-81
2022/11/30 12:47:44;;;;;;;57.25;32.13;;;6.50;99.90;;;;;;6068818;23;20146;-82
2022/11/30 12:50:28;;;;;;;54.13;31.38;;;6.60;99.90;;;;;;6068151;23;20446;-83
2022/11/30 12:53:14;;;;;;;54.77;31.87;;;6.60;99.90;;;;;;6068930;23;20477;-82
2022/11/30 12:56:14;;;;;;;56.85;32.83;;;6.50;99.90;;;;;;6092784;23;20034;-81
2022/11/30 12:59:05;;;;;;;57.30;31.75;;;6.60;99.90;;;;;;6067956;23;20089;-80
2022/11/30 13:01:48;;;;;;;59.30;33.15;;;6.60;99.90;;;;;;6092889;23;20010;-85
2022/11/30 13:04:17;;;;;;;64.50;35.25;;;6.60;99.90;;;;;;6094289;23;20034;-86
2022/11/30 13:07:11;;;;;;;59.38;33.60;;;6.50;99.90;;;;;;6096444;23;20053;-82